Airfield :
LOGIN :

Register | Disclaimer

   EN    FR    IT 

 










Legend :    VFR   Marginal VFR   IFR   Intensive IFR   Very Intensive IFR
Visi :
Ceiling :
>= 8 km
>= 3000ft
5 to 8 km
1000 to 3000 ft
1500m to 5 km
500 to 1000 ft
800 to 1500m
200 to 500 ft
< 800m
< 200 ft
Symbols :   Thunderstorms  Fog  Heavy snow  Heavy precipitations  Wind > 20 kt
SIGMETs :     Misc.  Thunderstorms  Icing  Turbulence  Mountain Waves  Volcanic Ashes






- Airport Elevation : 0 ft


ENSL - Sleipner A Platform

CURRENT METAR :
  • 021620Z AUTO 20025KT 9999NDV FEW013/// SCT017/// 14/13 Q1011 W13/S4

EXPIRED METARs :
  • 021550Z AUTO 19026KT 9999NDV -SHRA FEW012/// SCT063/// 14/13 Q1011 W13/S4
  • 021520Z AUTO 20024KT 0400NDV -RA SCT010/// BKN053/// 14/14 Q1011 W13/S4
  • 021450Z AUTO 20027KT 9999NDV FEW012/// BKN046/// BKN068/// 14/14 Q1011 W13/S4
  • 020250Z AUTO 20021KT 9999NDV FEW009/// 14/13 Q1010 W12/S3
  • 021420Z AUTO 19028KT 9999NDV BKN012/// BKN068/// 15/14 Q1011 W13/S4
  • 021350Z AUTO 19028KT 9999NDV SCT011/// 14/14 Q1011 W13/S4

Expired Forecast.



MET'MAP, your aeronautical weather chart ! - Copyright ORBIFLY December 2007 - Disclaimer

ORBIFLY MET'MAP TEAM :

Programming & Development : Alexandra Zaïnal
Original concept : Baudouin d'Aumeries
Technical & hardware support : Manuel Goepfert
Assistance : Marc-Olivier Méhu




SOURCES & CREDITS :

   NOAA